createdAt,value
2018-09-20T00:00:59.905Z,18.84
2018-09-20T00:03:28.215Z,18.79
2018-09-20T00:05:56.513Z,18.73
2018-09-20T00:08:25.371Z,18.70
2018-09-20T00:10:53.696Z,18.66
2018-09-20T00:13:21.990Z,18.67
2018-09-20T00:15:50.282Z,18.58
2018-09-20T00:18:18.598Z,18.58
2018-09-20T00:20:46.890Z,18.54
2018-09-20T00:23:15.186Z,18.61
2018-09-20T00:25:43.471Z,18.65
2018-09-20T00:28:11.783Z,18.77
2018-09-20T00:30:40.085Z,18.64
2018-09-20T00:33:08.391Z,18.54
2018-09-20T00:35:36.688Z,18.46
2018-09-20T00:38:05.002Z,18.49
2018-09-20T00:40:33.301Z,18.44
2018-09-20T00:43:01.586Z,18.39
2018-09-20T00:45:29.886Z,18.48
2018-09-20T00:47:58.178Z,18.48
2018-09-20T00:50:26.502Z,18.48
2018-09-20T00:52:54.803Z,18.55
2018-09-20T00:55:23.119Z,18.47
2018-09-20T00:57:51.430Z,18.45
2018-09-20T01:00:19.731Z,18.52
2018-09-20T01:02:48.026Z,18.45
2018-09-20T01:05:16.322Z,18.39
2018-09-20T01:07:44.641Z,18.48
2018-09-20T01:10:12.938Z,18.40
2018-09-20T01:12:41.246Z,18.40
2018-09-20T01:15:09.538Z,18.28
2018-09-20T01:17:37.832Z,18.37
2018-09-20T01:20:06.159Z,18.21
2018-09-20T01:22:34.442Z,18.15
2018-09-20T01:25:02.746Z,18.38
2018-09-20T01:27:31.042Z,18.38
2018-09-20T01:29:59.350Z,18.12
2018-09-20T01:32:27.646Z,18.17
2018-09-20T01:34:55.938Z,18.15
2018-09-20T01:37:24.247Z,18.05
2018-09-20T01:46:51.002Z,18.03
2018-09-20T01:49:19.308Z,17.99
2018-09-20T01:51:47.595Z,17.97
2018-09-20T01:54:15.894Z,17.93
2018-09-20T01:56:44.190Z,17.99
2018-09-20T01:59:12.498Z,18.01
2018-09-20T02:01:40.790Z,17.97
2018-09-20T02:04:09.094Z,17.83
2018-09-20T02:06:37.386Z,17.83
2018-09-20T02:09:05.674Z,17.83
2018-09-20T02:11:33.978Z,17.83
2018-09-20T02:14:02.274Z,17.80
2018-09-20T02:16:30.582Z,17.95
2018-09-20T02:18:58.875Z,17.81
2018-09-20T02:21:27.174Z,17.72
2018-09-20T02:23:55.462Z,17.68
2018-09-20T02:26:23.762Z,17.58
2018-09-20T02:28:52.057Z,17.50
2018-09-20T02:31:20.350Z,17.58
2018-09-20T02:33:48.656Z,17.50
2018-09-20T02:36:16.947Z,17.54
2018-09-20T02:38:45.247Z,17.47
2018-09-20T02:41:13.540Z,17.44
2018-09-20T02:43:41.834Z,17.42
2018-09-20T02:46:10.130Z,17.38
2018-09-20T02:48:38.422Z,17.45
2018-09-20T02:51:06.726Z,17.42
2018-09-20T02:53:35.029Z,17.30
2018-09-20T02:56:03.339Z,17.31
2018-09-20T02:58:31.623Z,17.33
2018-09-20T03:00:59.906Z,17.31
2018-09-20T03:03:28.215Z,17.29
2018-09-20T03:05:56.502Z,17.25
2018-09-20T03:08:24.805Z,17.31
2018-09-20T03:10:53.098Z,17.26
2018-09-20T03:13:21.402Z,17.18
2018-09-20T03:15:49.698Z,17.12
2018-09-20T03:18:18.003Z,17.15
2018-09-20T03:20:46.302Z,17.08
2018-09-20T03:23:14.591Z,17.08
2018-09-20T03:25:42.894Z,17.04
2018-09-20T03:28:11.207Z,17.07
2018-09-20T03:30:39.591Z,17.08
2018-09-20T03:33:07.803Z,17.08
2018-09-20T03:35:36.091Z,17.06
2018-09-20T03:38:04.386Z,17.13
2018-09-20T03:40:32.678Z,17.17
2018-09-20T03:43:01.008Z,17.10
2018-09-20T03:45:29.318Z,17.08
2018-09-20T03:47:57.590Z,17.09
2018-09-20T03:50:25.892Z,17.08
2018-09-20T03:52:54.193Z,17.03
2018-09-20T03:55:22.491Z,16.98
2018-09-20T03:57:50.821Z,17.04
2018-09-20T04:00:19.094Z,16.97
2018-09-20T04:02:47.390Z,16.93
2018-09-20T04:05:15.691Z,16.91
2018-09-20T04:07:43.984Z,16.94
2018-09-20T04:10:12.271Z,16.92
2018-09-20T04:12:40.585Z,16.98
2018-09-20T04:15:08.863Z,16.97
2018-09-20T04:17:37.154Z,16.97
2018-09-20T04:20:05.472Z,17.07
2018-09-20T04:22:33.763Z,17.05
2018-09-20T04:25:02.058Z,16.98
2018-09-20T04:27:30.363Z,16.98
2018-09-20T04:29:58.810Z,17.00
2018-09-20T04:32:27.095Z,17.01
2018-09-20T04:34:55.411Z,17.04
2018-09-20T04:37:23.706Z,17.04
2018-09-20T04:39:51.994Z,16.98
2018-09-20T04:42:20.301Z,17.06
2018-09-20T04:44:49.894Z,17.05
2018-09-20T04:47:18.378Z,17.06
2018-09-20T04:49:46.675Z,16.92
2018-09-20T04:52:14.966Z,16.98
2018-09-20T04:54:43.263Z,16.96
2018-09-20T04:57:11.570Z,16.93
2018-09-20T04:59:39.863Z,16.96
2018-09-20T05:02:08.154Z,16.98
2018-09-20T05:04:36.463Z,17.01
2018-09-20T05:07:04.751Z,17.02
2018-09-20T05:09:33.073Z,17.14
2018-09-20T05:12:01.356Z,17.09
2018-09-20T05:14:29.646Z,17.06
2018-09-20T05:16:57.934Z,17.06
2018-09-20T05:19:26.252Z,17.07
2018-09-20T05:21:54.639Z,17.07
2018-09-20T05:24:22.886Z,17.10
2018-09-20T05:26:51.199Z,17.06
2018-09-20T05:29:19.491Z,16.94
2018-09-20T05:31:47.782Z,17.12
2018-09-20T05:34:16.094Z,17.02
2018-09-20T05:36:44.378Z,16.97
2018-09-20T05:39:12.689Z,16.99
2018-09-20T05:41:41.014Z,17.04
2018-09-20T05:44:09.315Z,17.06
2018-09-20T05:46:37.603Z,17.17
2018-09-20T05:49:05.911Z,17.21
2018-09-20T05:51:34.207Z,17.31
2018-09-20T05:54:02.494Z,17.47
2018-09-20T05:56:30.802Z,17.47
2018-09-20T05:58:59.087Z,17.53
2018-09-20T06:01:27.384Z,17.59
2018-09-20T06:03:55.696Z,17.65
2018-09-20T06:06:23.999Z,17.71
2018-09-20T06:08:52.292Z,17.71
2018-09-20T06:11:20.598Z,17.84
2018-09-20T06:13:48.894Z,17.86
2018-09-20T06:16:17.191Z,17.91
2018-09-20T06:18:45.498Z,17.97
2018-09-20T06:21:13.786Z,17.97
2018-09-20T06:23:42.078Z,18.09
2018-09-20T06:26:10.387Z,18.18
2018-09-20T06:28:38.679Z,18.34
2018-09-20T06:31:06.974Z,18.32
2018-09-20T06:33:35.286Z,18.47
2018-09-20T06:36:03.579Z,18.47
2018-09-20T06:38:31.889Z,18.59
2018-09-20T06:41:00.237Z,18.63
2018-09-20T06:43:28.495Z,18.85
2018-09-20T06:45:56.794Z,18.83
2018-09-20T06:48:25.099Z,18.82
2018-09-20T06:50:53.398Z,19.07
2018-09-20T06:53:21.711Z,19.14
2018-09-20T06:55:50.027Z,19.15
2018-09-20T06:58:18.320Z,19.22
2018-09-20T07:00:46.607Z,19.33
2018-09-20T07:03:14.937Z,19.37
2018-09-20T07:05:43.209Z,19.47
2018-09-20T07:08:11.507Z,19.48
2018-09-20T07:10:39.829Z,19.54
2018-09-20T07:13:08.114Z,19.61
2018-09-20T07:15:36.411Z,19.70
2018-09-20T07:18:04.719Z,19.72
2018-09-20T07:20:33.011Z,19.71
2018-09-20T07:23:01.307Z,19.72
2018-09-20T07:25:29.634Z,19.79
2018-09-20T07:27:57.898Z,19.90
2018-09-20T07:30:26.183Z,19.85
2018-09-20T07:32:54.505Z,19.98
2018-09-20T07:35:22.778Z,19.95
2018-09-20T07:37:51.075Z,19.98
2018-09-20T07:40:19.409Z,20.14
2018-09-20T07:42:47.695Z,20.14
2018-09-20T07:45:15.978Z,20.17
2018-09-20T07:47:44.286Z,20.29
2018-09-20T07:50:12.586Z,20.34
2018-09-20T07:52:40.878Z,20.32
2018-09-20T07:55:09.287Z,20.34
2018-09-20T07:57:37.574Z,20.48
2018-09-20T08:00:05.856Z,20.52
2018-09-20T08:02:34.167Z,20.70
2018-09-20T08:05:02.460Z,20.75
2018-09-20T08:07:30.766Z,20.92
2018-09-20T08:09:59.066Z,20.93
2018-09-20T08:12:27.422Z,20.94
2018-09-20T08:14:55.711Z,21.00
2018-09-20T08:17:24.027Z,21.12
2018-09-20T08:19:52.430Z,21.35
2018-09-20T08:22:20.734Z,21.39
2018-09-20T08:24:49.054Z,21.36
2018-09-20T08:29:44.692Z,21.68
2018-09-20T08:32:12.996Z,21.65
2018-09-20T08:34:41.283Z,21.71
2018-09-20T08:37:09.592Z,21.59
2018-09-20T08:39:37.879Z,21.75
2018-09-20T08:42:06.298Z,21.83
2018-09-20T08:44:34.528Z,21.89
2018-09-20T08:47:02.927Z,22.12
2018-09-20T08:49:32.028Z,22.18
2018-09-20T08:52:00.963Z,22.30
2018-09-20T08:54:29.255Z,22.50
2018-09-20T08:56:57.609Z,22.70
2018-09-20T08:59:25.828Z,22.82
2018-09-20T09:01:54.144Z,22.78
2018-09-20T09:04:22.446Z,22.68
2018-09-20T09:06:50.710Z,22.91
2018-09-20T09:09:19.015Z,22.86
2018-09-20T09:11:47.340Z,23.13
2018-09-20T09:14:15.618Z,23.18
2018-09-20T09:16:43.916Z,23.19
2018-09-20T09:19:12.194Z,23.34
2018-09-20T09:21:40.479Z,23.39
2018-09-20T09:24:08.771Z,23.59
2018-09-20T09:26:37.067Z,23.71
2018-09-20T09:29:05.350Z,23.79
2018-09-20T09:31:33.675Z,23.88
2018-09-20T09:34:01.964Z,23.94
2018-09-20T09:36:30.251Z,24.16
2018-09-20T09:38:58.545Z,23.94
2018-09-20T09:41:26.821Z,24.21
2018-09-20T09:43:55.111Z,24.54
2018-09-20T09:46:23.414Z,24.59
2018-09-20T09:48:51.711Z,24.51
2018-09-20T09:51:19.990Z,24.58
2018-09-20T09:54:04.358Z,24.33
2018-09-20T09:56:32.657Z,24.56
2018-09-20T09:59:00.934Z,24.81
2018-09-20T10:01:29.236Z,24.95
2018-09-20T10:03:57.516Z,25.03
2018-09-20T10:06:25.824Z,25.04
2018-09-20T10:08:54.107Z,25.16
2018-09-20T10:11:22.403Z,25.28
2018-09-20T10:13:50.767Z,25.31
2018-09-20T10:16:18.995Z,25.47
2018-09-20T10:18:47.344Z,25.60
2018-09-20T10:21:15.645Z,25.56
2018-09-20T10:23:43.928Z,25.61
2018-09-20T10:26:12.231Z,25.58
2018-09-20T10:28:40.535Z,25.74
2018-09-20T10:31:08.823Z,25.91
2018-09-20T10:33:37.116Z,25.84
2018-09-20T10:36:05.398Z,25.90
2018-09-20T10:38:33.686Z,25.94
2018-09-20T10:41:01.962Z,25.78
2018-09-20T10:43:30.261Z,26.02
2018-09-20T10:45:58.615Z,25.90
2018-09-20T10:48:26.859Z,26.21
2018-09-20T10:50:55.176Z,26.22
2018-09-20T10:53:23.466Z,26.19
2018-09-20T10:55:51.750Z,26.38
2018-09-20T10:58:20.047Z,26.40
2018-09-20T11:00:48.327Z,26.39
2018-09-20T11:03:16.679Z,26.53
2018-09-20T11:05:44.915Z,26.50
2018-09-20T11:08:13.194Z,26.33
2018-09-20T11:10:41.484Z,26.22
2018-09-20T11:13:09.772Z,26.40
2018-09-20T11:15:38.087Z,26.41
2018-09-20T11:18:06.362Z,26.37
2018-09-20T11:20:34.670Z,26.12
2018-09-20T11:23:02.959Z,26.19
2018-09-20T11:25:31.242Z,26.14
2018-09-20T11:27:59.534Z,26.12
2018-09-20T11:30:27.815Z,26.09
2018-09-20T11:32:56.100Z,26.01
2018-09-20T11:35:24.399Z,25.96
2018-09-20T11:37:52.682Z,26.39
2018-09-20T11:40:20.970Z,26.62
2018-09-20T11:42:49.268Z,26.55
2018-09-20T11:45:17.644Z,26.50
2018-09-20T11:47:45.909Z,26.93
2018-09-20T11:50:14.210Z,26.53
2018-09-20T11:52:42.496Z,26.37
2018-09-20T11:55:10.804Z,26.40
2018-09-20T11:57:39.081Z,26.49
2018-09-20T12:00:07.354Z,26.54
2018-09-20T12:02:35.647Z,26.32
2018-09-20T12:05:03.938Z,26.62
2018-09-20T12:07:32.221Z,26.60
2018-09-20T12:10:00.534Z,26.46
2018-09-20T12:12:28.827Z,26.32
2018-09-20T12:14:57.143Z,26.45
2018-09-20T12:17:25.427Z,26.45
2018-09-20T12:19:53.727Z,26.51
2018-09-20T12:22:22.017Z,26.56
2018-09-20T12:24:50.298Z,26.62
2018-09-20T12:27:23.453Z,26.60
2018-09-20T12:30:02.261Z,26.95
2018-09-20T12:32:30.564Z,26.99
2018-09-20T12:34:58.850Z,27.02
2018-09-20T12:37:27.180Z,27.04
2018-09-20T12:39:55.450Z,27.25
2018-09-20T12:42:23.735Z,27.11
2018-09-20T12:44:52.018Z,27.24
2018-09-20T12:47:20.336Z,27.45
2018-09-20T12:49:48.603Z,27.54
2018-09-20T12:52:16.875Z,27.60
2018-09-20T12:54:45.253Z,27.69
2018-09-20T12:57:13.463Z,27.66
2018-09-20T12:59:41.773Z,27.55
2018-09-20T13:02:10.142Z,27.41
2018-09-20T13:04:38.375Z,27.30
2018-09-20T13:07:06.665Z,27.35
2018-09-20T13:09:34.964Z,27.25
2018-09-20T13:15:34.234Z,27.56
2018-09-20T13:18:02.519Z,27.62
2018-09-20T13:20:30.870Z,27.61
2018-09-20T13:22:59.107Z,27.66
2018-09-20T13:25:27.436Z,27.59
2018-09-20T13:27:55.674Z,27.49
2018-09-20T13:30:23.972Z,27.69
2018-09-20T13:32:52.255Z,27.69
2018-09-20T13:35:20.538Z,27.75
2018-09-20T13:37:48.831Z,27.82
2018-09-20T13:40:17.116Z,27.89
2018-09-20T13:42:45.412Z,27.81
2018-09-20T13:45:13.722Z,27.71
2018-09-20T13:47:42.045Z,27.69
2018-09-20T13:50:10.335Z,27.86
2018-09-20T13:52:38.638Z,27.69
2018-09-20T13:55:06.921Z,27.71
2018-09-20T13:57:35.197Z,27.50
2018-09-20T14:00:03.501Z,27.33
2018-09-20T14:02:31.792Z,27.31
2018-09-20T14:05:00.075Z,27.30
2018-09-20T14:07:28.371Z,27.41
2018-09-20T14:09:56.658Z,27.75
2018-09-20T14:12:24.934Z,27.75
2018-09-20T14:14:53.232Z,27.81
2018-09-20T14:17:21.519Z,28.09
2018-09-20T14:19:49.800Z,28.17
2018-09-20T14:22:18.100Z,28.08
2018-09-20T14:24:46.388Z,28.07
2018-09-20T14:27:19.034Z,28.05
2018-09-20T14:29:50.687Z,28.18
2018-09-20T14:32:26.071Z,28.03
2018-09-20T14:34:55.715Z,28.22
2018-09-20T14:37:24.053Z,28.22
2018-09-20T14:39:52.338Z,28.27
2018-09-20T14:42:20.629Z,28.12
2018-09-20T14:44:48.919Z,28.14
2018-09-20T14:47:17.203Z,28.12
2018-09-20T14:49:45.494Z,28.15
2018-09-20T14:52:13.785Z,28.08
2018-09-20T14:54:42.067Z,28.02
2018-09-20T14:57:10.361Z,28.09
2018-09-20T14:59:38.706Z,28.17
2018-09-20T15:02:06.958Z,28.17
2018-09-20T15:04:35.252Z,28.22
2018-09-20T15:07:03.548Z,27.99
2018-09-20T15:09:31.829Z,28.01
2018-09-20T15:12:00.150Z,28.16
2018-09-20T15:14:28.407Z,28.08
2018-09-20T15:16:56.687Z,28.13
2018-09-20T15:19:25.019Z,27.99
2018-09-20T15:21:53.271Z,28.13
2018-09-20T15:24:21.623Z,28.04
2018-09-20T15:26:49.896Z,27.93
2018-09-20T15:29:18.188Z,27.85
2018-09-20T15:31:46.564Z,28.07
2018-09-20T15:34:14.840Z,28.22
2018-09-20T15:36:43.186Z,28.04
2018-09-20T15:39:11.427Z,28.09
2018-09-20T15:41:39.721Z,28.15
2018-09-20T15:44:08.003Z,27.96
2018-09-20T15:46:36.282Z,27.78
2018-09-20T15:49:04.575Z,27.95
2018-09-20T15:51:32.866Z,27.80
2018-09-20T15:54:01.168Z,27.78
2018-09-20T15:56:29.454Z,27.80
2018-09-20T15:58:57.734Z,27.68
2018-09-20T16:01:26.046Z,27.57
2018-09-20T16:03:54.343Z,27.53
2018-09-20T16:06:22.623Z,27.42
2018-09-20T16:08:51.007Z,27.21
2018-09-20T16:11:19.270Z,27.04
2018-09-20T16:13:47.880Z,26.90
2018-09-20T16:16:16.154Z,26.74
2018-09-20T16:18:44.460Z,26.62
2018-09-20T16:21:12.743Z,26.54
2018-09-20T16:23:41.131Z,26.42
2018-09-20T16:26:09.325Z,26.44
2018-09-20T16:28:39.567Z,26.57
2018-09-20T16:31:15.118Z,26.53
2018-09-20T16:33:48.883Z,26.52
2018-09-20T16:36:19.075Z,26.75
2018-09-20T16:38:48.331Z,27.04
2018-09-20T16:41:18.319Z,27.08
2018-09-20T16:43:46.694Z,27.05
2018-09-20T16:46:14.967Z,27.04
2018-09-20T16:48:43.276Z,26.84
2018-09-20T16:51:11.564Z,26.68
2018-09-20T16:53:39.851Z,26.54
2018-09-20T16:56:08.148Z,26.75
2018-09-20T16:58:36.431Z,26.52
2018-09-20T17:01:04.859Z,26.58
2018-09-20T17:03:33.155Z,26.45
2018-09-20T17:06:01.434Z,26.55
2018-09-20T17:08:29.725Z,26.45
2018-09-20T17:10:58.016Z,26.48
2018-09-20T17:13:26.307Z,26.39
2018-09-20T17:15:54.586Z,26.36
2018-09-20T17:18:22.921Z,26.37
2018-09-20T17:20:51.175Z,26.13
2018-09-20T17:23:19.466Z,26.08
2018-09-20T17:25:47.896Z,25.99
2018-09-20T17:28:16.162Z,25.96
2018-09-20T17:30:44.450Z,25.73
2018-09-20T17:33:12.761Z,25.57
2018-09-20T17:35:41.189Z,25.33
2018-09-20T17:38:09.656Z,25.35
2018-09-20T17:40:38.124Z,25.29
2018-09-20T17:43:06.594Z,25.17
2018-09-20T17:45:34.921Z,25.10
2018-09-20T17:48:03.199Z,24.91
2018-09-20T17:50:31.479Z,24.74
2018-09-20T17:52:59.794Z,24.46
2018-09-20T17:55:28.150Z,24.30
2018-09-20T17:57:56.570Z,24.02
2018-09-20T18:00:24.855Z,23.86
2018-09-20T18:02:53.176Z,23.80
2018-09-20T18:05:21.455Z,23.67
2018-09-20T18:07:49.747Z,23.67
2018-09-20T18:10:18.043Z,23.52
2018-09-20T18:12:46.326Z,23.40
2018-09-20T18:15:14.627Z,23.26
2018-09-20T18:17:42.976Z,23.10
2018-09-20T18:20:11.208Z,23.05
2018-09-20T18:22:39.494Z,23.00
2018-09-20T18:25:07.788Z,22.97
2018-09-20T18:27:36.068Z,23.02
2018-09-20T18:30:04.354Z,22.88
2018-09-20T18:32:32.652Z,22.80
2018-09-20T18:35:00.953Z,22.62
2018-09-20T18:37:29.227Z,22.54
2018-09-20T18:39:57.534Z,22.48
2018-09-20T18:42:25.854Z,22.56
2018-09-20T18:44:54.104Z,22.58
2018-09-20T18:47:22.403Z,22.57
2018-09-20T18:49:50.701Z,22.37
2018-09-20T18:52:18.970Z,22.37
2018-09-20T18:54:47.277Z,22.31
2018-09-20T18:57:15.574Z,22.29
2018-09-20T18:59:43.862Z,22.10
2018-09-20T19:02:12.166Z,22.04
2018-09-20T19:04:40.478Z,22.26
2018-09-20T19:07:08.778Z,22.21
2018-09-20T19:09:37.315Z,22.11
2018-09-20T19:12:05.632Z,21.95
2018-09-20T19:14:33.920Z,21.84
2018-09-20T19:17:02.214Z,21.82
2018-09-20T19:19:30.511Z,22.03
2018-09-20T19:21:58.798Z,22.18
2018-09-20T19:24:27.111Z,21.90
2018-09-20T19:26:55.390Z,21.70
2018-09-20T19:29:23.674Z,21.65
2018-09-20T19:31:52.043Z,21.88
2018-09-20T19:34:20.266Z,21.91
2018-09-20T19:36:48.552Z,21.71
2018-09-20T19:39:16.850Z,21.65
2018-09-20T19:41:45.139Z,21.57
2018-09-20T19:46:40.898Z,21.35
2018-09-20T19:49:09.183Z,21.53
2018-09-20T19:51:37.568Z,21.28
2018-09-20T19:54:13.428Z,21.41
2018-09-20T19:56:42.059Z,21.21
2018-09-20T19:59:10.339Z,21.18
2018-09-20T20:01:38.662Z,21.36
2018-09-20T20:04:08.518Z,21.29
2018-09-20T20:06:36.841Z,21.11
2018-09-20T20:09:05.358Z,20.92
2018-09-20T20:11:33.663Z,20.86
2018-09-20T20:14:01.934Z,20.81
2018-09-20T20:16:30.261Z,20.85
2018-09-20T20:18:58.551Z,20.91
2018-09-20T20:21:26.850Z,20.81
2018-09-20T20:23:55.314Z,20.78
2018-09-20T20:26:23.674Z,20.78
2018-09-20T20:28:51.968Z,20.70
2018-09-20T20:31:20.282Z,20.61
2018-09-20T20:33:48.569Z,20.57
2018-09-20T20:36:16.863Z,20.57
2018-09-20T20:38:45.159Z,20.62
2018-09-20T20:41:13.468Z,20.59
2018-09-20T20:43:41.760Z,20.60
2018-09-20T20:46:10.079Z,20.48
2018-09-20T20:48:38.379Z,20.36
2018-09-20T20:51:06.689Z,20.37
2018-09-20T20:53:34.998Z,20.37
2018-09-20T20:56:03.299Z,20.24
2018-09-20T20:58:31.675Z,20.21
2018-09-20T21:00:59.907Z,20.12
2018-09-20T21:03:28.203Z,20.07
2018-09-20T21:05:56.503Z,20.03
2018-09-20T21:08:24.950Z,20.06
2018-09-20T21:10:53.205Z,19.94
2018-09-20T21:13:21.490Z,19.94
2018-09-20T21:15:49.818Z,19.97
2018-09-20T21:18:18.121Z,19.97
2018-09-20T21:20:46.414Z,19.95
2018-09-20T21:23:14.723Z,19.92
2018-09-20T21:25:43.018Z,19.93
2018-09-20T21:28:11.306Z,19.93
2018-09-20T21:30:39.624Z,19.93
2018-09-20T21:33:07.911Z,19.93
2018-09-20T21:35:36.204Z,19.87
2018-09-20T21:38:04.528Z,19.85
2018-09-20T21:40:32.822Z,19.81
2018-09-20T21:43:01.126Z,19.83
2018-09-20T21:45:29.440Z,19.80
2018-09-20T21:47:57.726Z,19.75
2018-09-20T21:50:26.046Z,19.70
2018-09-20T21:52:54.370Z,19.73
2018-09-20T21:55:22.658Z,19.71
2018-09-20T21:57:50.954Z,19.67
2018-09-20T22:00:19.262Z,19.68
2018-09-20T22:02:47.566Z,19.63
2018-09-20T22:05:15.863Z,19.60
2018-09-20T22:07:44.175Z,19.61
2018-09-20T22:10:12.742Z,19.63
2018-09-20T22:12:41.645Z,19.51
2018-09-20T22:15:09.978Z,19.51
2018-09-20T22:17:38.261Z,19.43
2018-09-20T22:20:06.547Z,19.41
2018-09-20T22:22:34.858Z,19.44
2018-09-20T22:25:03.158Z,19.48
2018-09-20T22:27:31.481Z,19.42
2018-09-20T22:29:59.805Z,19.39
2018-09-20T22:32:28.099Z,19.40
2018-09-20T22:34:56.398Z,19.42
2018-09-20T22:37:24.898Z,19.45
2018-09-20T22:39:53.180Z,19.44
2018-09-20T22:42:21.471Z,19.49
2018-09-20T22:44:50.024Z,19.42
2018-09-20T22:47:18.567Z,19.34
2018-09-20T22:49:46.858Z,19.34
2018-09-20T22:52:15.162Z,19.26
2018-09-20T22:54:43.459Z,19.24
2018-09-20T22:57:11.751Z,19.21
2018-09-20T22:59:40.059Z,19.32
2018-09-20T23:02:08.349Z,19.43
2018-09-20T23:04:36.652Z,19.56
2018-09-20T23:07:04.955Z,19.44
2018-09-20T23:09:33.252Z,19.42
2018-09-20T23:12:01.551Z,19.37
2018-09-20T23:14:29.893Z,19.34
2018-09-20T23:16:58.155Z,19.30
2018-09-20T23:19:26.450Z,19.20
2018-09-20T23:21:54.752Z,19.26
2018-09-20T23:24:23.043Z,19.05
2018-09-20T23:26:51.357Z,18.88
2018-09-20T23:29:19.675Z,18.90
2018-09-20T23:31:47.971Z,18.76
2018-09-20T23:34:16.258Z,18.82
2018-09-20T23:36:44.559Z,18.70
2018-09-20T23:39:12.862Z,18.71
2018-09-20T23:41:41.158Z,18.69
2018-09-20T23:44:09.487Z,18.79
2018-09-20T23:46:37.766Z,18.63
2018-09-20T23:49:06.054Z,18.79
2018-09-20T23:51:34.391Z,18.93
2018-09-20T23:54:02.674Z,19.09
2018-09-20T23:56:30.974Z,19.18
2018-09-20T23:58:59.278Z,19.19
